Time;durP1;ratioP1;P1;durP2;ratioP2;P2;SDS_P1;SDS_P2;PMS_P1;PMS_P2;Temp;Humidity;BMP_temperature;BMP_pressure;BME280_temperature;BME280_humidity;BME280_pressure;Samples;Min_cycle;Max_cycle;Signal;HPM_P1;HPM_P2
2022/11/07 00:02:02;;;;;;;6.88;1.88;;;8.40;99.90;;;;;;5038802;28;20037;-75
2022/11/07 00:04:28;;;;;;;2.95;1.30;;;8.30;99.90;;;;;;5041393;28;20432;-75
2022/11/07 00:06:54;;;;;;;3.17;1.48;;;8.40;99.90;;;;;;5036785;28;20035;-75
2022/11/07 00:09:20;;;;;;;2.88;1.40;;;8.40;99.90;;;;;;5040866;28;20403;-75
2022/11/07 00:11:46;;;;;;;3.65;1.73;;;8.40;99.90;;;;;;5037684;28;20116;-75
2022/11/07 00:14:13;;;;;;;3.33;1.42;;;8.50;99.90;;;;;;5036448;28;20041;-75
2022/11/07 00:16:39;;;;;;;2.97;1.60;;;8.40;99.90;;;;;;5038601;28;20094;-75
2022/11/07 00:19:05;;;;;;;3.90;1.38;;;8.30;99.90;;;;;;5041613;28;20017;-75
2022/11/07 00:21:31;;;;;;;1.98;0.95;;;8.20;99.90;;;;;;5038977;28;20059;-75
2022/11/07 00:23:57;;;;;;;2.63;1.15;;;8.20;99.90;;;;;;5032906;28;20179;-75
2022/11/07 00:26:22;;;;;;;2.38;1.08;;;8.10;99.90;;;;;;5040326;28;20055;-75
2022/11/07 00:28:48;;;;;;;3.17;1.30;;;8.10;99.90;;;;;;5042718;28;20119;-75
2022/11/07 00:31:15;;;;;;;3.17;1.60;;;7.90;99.90;;;;;;5027745;28;20025;-75
2022/11/07 00:33:41;;;;;;;2.17;1.15;;;7.90;99.90;;;;;;5043125;28;20036;-75
2022/11/07 00:36:08;;;;;;;2.47;1.05;;;8.00;99.90;;;;;;5036500;28;20033;-75
2022/11/07 00:38:34;;;;;;;3.55;1.60;;;7.90;99.90;;;;;;5033139;28;20033;-75
2022/11/07 00:41:05;;;;;;;3.83;1.50;;;7.90;99.90;;;;;;5031616;28;20040;-75
2022/11/07 00:43:31;;;;;;;2.92;1.20;;;7.80;99.90;;;;;;5055740;28;20044;-75
2022/11/07 00:45:59;;;;;;;3.30;1.40;;;7.70;99.90;;;;;;5064680;28;20092;-75
2022/11/07 00:48:24;;;;;;;4.18;1.08;;;7.80;99.90;;;;;;5040400;28;20026;-75
2022/11/07 00:50:50;;;;;;;3.40;1.58;;;7.90;99.90;;;;;;5038953;28;20116;-75
2022/11/07 00:53:16;;;;;;;3.47;1.40;;;7.80;99.90;;;;;;5030574;28;20060;-75
2022/11/07 00:55:42;;;;;;;2.78;1.23;;;7.80;99.90;;;;;;5033466;28;20026;-75
2022/11/07 00:58:08;;;;;;;3.03;1.20;;;7.60;99.90;;;;;;5035125;28;20029;-75
2022/11/07 01:00:34;;;;;;;3.35;1.35;;;7.60;99.90;;;;;;5044708;28;20533;-75
2022/11/07 01:05:57;;;;;;;3.33;1.20;;;7.60;99.90;;;;;;5027661;28;20060;-75
2022/11/07 01:08:23;;;;;;;2.50;1.00;;;7.50;99.90;;;;;;5034409;28;20044;-75
2022/11/07 01:10:49;;;;;;;4.38;1.30;;;7.50;99.90;;;;;;5034959;28;20025;-75
2022/11/07 01:13:14;;;;;;;1.98;0.90;;;7.50;99.90;;;;;;5043968;28;20112;-75
2022/11/07 01:15:41;;;;;;;2.65;1.23;;;7.50;99.90;;;;;;5030857;28;20099;-74
2022/11/07 01:18:06;;;;;;;3.15;1.50;;;7.50;99.90;;;;;;5037670;28;20057;-75
2022/11/07 01:20:32;;;;;;;2.78;1.15;;;7.60;99.90;;;;;;5042563;28;20030;-75
2022/11/07 01:22:58;;;;;;;2.35;1.02;;;7.70;99.90;;;;;;5045301;28;20040;-75
2022/11/07 01:25:23;;;;;;;2.95;1.30;;;7.70;99.90;;;;;;5041855;28;20037;-75
2022/11/07 01:27:49;;;;;;;2.25;1.40;;;7.70;99.90;;;;;;5033173;28;20115;-75
2022/11/07 01:30:15;;;;;;;6.10;1.52;;;7.60;99.90;;;;;;5045837;28;20043;-75
2022/11/07 01:32:40;;;;;;;1.67;1.00;;;7.60;99.90;;;;;;5049128;28;20602;-75
2022/11/07 01:35:06;;;;;;;3.13;1.35;;;7.50;99.90;;;;;;5039108;28;20057;-75
2022/11/07 01:37:32;;;;;;;3.75;0.80;;;7.50;99.90;;;;;;5044283;28;20078;-75
2022/11/07 01:39:57;;;;;;;3.40;0.90;;;7.40;99.90;;;;;;5034728;28;20418;-75
2022/11/07 01:42:24;;;;;;;2.28;1.30;;;7.30;99.90;;;;;;5037925;28;20041;-75
2022/11/07 01:44:59;;;;;;;3.20;1.23;;;7.40;99.90;;;;;;5043730;28;20059;-75
2022/11/07 01:47:33;;;;;;;3.22;1.40;;;7.40;99.90;;;;;;5038222;28;20083;-74
2022/11/07 01:49:59;;;;;;;3.03;1.25;;;7.30;99.90;;;;;;5047890;28;20380;-75
2022/11/07 01:52:34;;;;;;;2.42;1.40;;;7.10;99.90;;;;;;5038731;28;20033;-75
2022/11/07 01:55:11;;;;;;;4.78;1.42;;;7.10;99.90;;;;;;5048240;28;20033;-75
2022/11/07 01:57:58;;;;;;;3.47;1.30;;;7.10;99.90;;;;;;5044659;28;20032;-75
2022/11/07 02:00:24;;;;;;;3.88;1.40;;;7.20;99.90;;;;;;5048930;28;20029;-75
2022/11/07 02:02:55;;;;;;;4.57;1.15;;;7.10;99.90;;;;;;5051197;28;20495;-74
2022/11/07 02:05:28;;;;;;;3.20;1.55;;;7.20;99.90;;;;;;5041659;28;20071;-74
2022/11/07 02:07:55;;;;;;;5.45;2.38;;;7.30;99.90;;;;;;5050491;28;20104;-75
2022/11/07 02:10:21;;;;;;;2.95;1.35;;;7.30;99.90;;;;;;5045635;28;20030;-74
2022/11/07 02:12:47;;;;;;;2.75;1.20;;;7.10;99.90;;;;;;5036463;28;20467;-74
2022/11/07 02:15:13;;;;;;;3.72;1.52;;;7.00;99.90;;;;;;5038163;28;20111;-75
2022/11/07 02:17:39;;;;;;;1.90;1.08;;;7.10;99.90;;;;;;5044088;28;20048;-75
2022/11/07 02:20:05;;;;;;;1.65;0.80;;;7.10;99.90;;;;;;5034413;28;20029;-75
2022/11/07 02:22:45;;;;;;;3.45;1.60;;;7.50;99.90;;;;;;5042224;28;20032;-75
2022/11/07 02:25:14;;;;;;;3.00;1.50;;;7.40;99.90;;;;;;5044580;28;20033;-75
2022/11/07 02:27:41;;;;;;;2.67;1.17;;;7.40;99.90;;;;;;5048243;28;20119;-74
2022/11/07 02:30:16;;;;;;;2.58;1.17;;;7.60;99.90;;;;;;5039047;28;20033;-75
2022/11/07 02:32:42;;;;;;;2.10;0.95;;;7.60;99.90;;;;;;5045672;28;20029;-75
2022/11/07 02:35:31;;;;;;;3.50;1.48;;;7.40;99.90;;;;;;5039163;28;20386;-75
2022/11/07 02:37:57;;;;;;;4.10;1.40;;;7.10;99.90;;;;;;5037739;28;20080;-75
2022/11/07 02:40:23;;;;;;;3.03;1.73;;;7.20;99.90;;;;;;5036972;28;20025;-75
2022/11/07 02:42:49;;;;;;;2.25;1.02;;;7.30;99.90;;;;;;5031704;28;20171;-75
2022/11/07 02:45:27;;;;;;;2.55;1.15;;;7.10;99.90;;;;;;5051596;28;20107;-75
2022/11/07 02:47:53;;;;;;;2.30;1.10;;;7.10;99.90;;;;;;5036596;28;20429;-75
2022/11/07 02:50:18;;;;;;;2.75;1.23;;;6.80;99.90;;;;;;5037307;28;20030;-75
2022/11/07 02:52:44;;;;;;;2.38;1.08;;;6.80;99.90;;;;;;5040413;28;20390;-75
2022/11/07 02:55:12;;;;;;;2.55;1.40;;;7.10;99.90;;;;;;5023488;28;20422;-75
2022/11/07 02:57:38;;;;;;;2.90;1.10;;;7.00;99.90;;;;;;5043513;28;20086;-75
2022/11/07 03:00:05;;;;;;;2.80;1.08;;;6.90;99.90;;;;;;5036035;28;20414;-75
2022/11/07 03:02:31;;;;;;;3.08;1.02;;;7.00;99.90;;;;;;5037075;28;20120;-75
2022/11/07 03:04:57;;;;;;;2.63;1.20;;;7.00;99.90;;;;;;5042613;28;20108;-75
2022/11/07 03:07:23;;;;;;;3.08;1.25;;;6.90;99.90;;;;;;5045096;28;20040;-75
2022/11/07 03:09:49;;;;;;;2.78;1.30;;;6.70;99.90;;;;;;5040508;28;20139;-75
2022/11/07 03:12:15;;;;;;;2.40;1.33;;;6.50;99.90;;;;;;5043854;28;20048;-74
2022/11/07 03:14:41;;;;;;;3.35;1.35;;;6.50;99.90;;;;;;5041047;28;20643;-75
2022/11/07 03:17:07;;;;;;;1.98;0.90;;;6.50;99.90;;;;;;5033815;28;20056;-75
2022/11/07 03:19:32;;;;;;;2.97;1.13;;;6.60;99.90;;;;;;5030320;28;20026;-75
2022/11/07 03:21:58;;;;;;;3.05;1.20;;;6.80;99.90;;;;;;5036474;28;20033;-74
2022/11/07 03:24:24;;;;;;;2.88;1.42;;;6.90;99.90;;;;;;5044064;28;20143;-75
2022/11/07 03:26:50;;;;;;;2.60;1.30;;;7.00;99.90;;;;;;5042075;28;20017;-75
2022/11/07 03:29:15;;;;;;;3.88;1.92;;;7.10;99.90;;;;;;5038584;28;20039;-75
2022/11/07 03:31:41;;;;;;;3.22;1.25;;;6.90;99.90;;;;;;5038703;28;20032;-75
2022/11/07 03:34:07;;;;;;;4.18;1.35;;;6.70;99.90;;;;;;5030582;28;20032;-75
2022/11/07 03:36:33;;;;;;;3.38;1.27;;;6.70;99.90;;;;;;5037047;28;20391;-75
2022/11/07 03:38:59;;;;;;;3.08;1.27;;;6.70;99.90;;;;;;5043423;28;20037;-75
2022/11/07 03:41:24;;;;;;;3.50;1.20;;;6.80;99.90;;;;;;5034700;28;20021;-75
2022/11/07 03:43:50;;;;;;;3.20;1.45;;;6.80;99.90;;;;;;5041767;28;20440;-74
2022/11/07 03:46:16;;;;;;;2.30;1.10;;;6.70;99.90;;;;;;5031852;28;20477;-75
2022/11/07 03:48:42;;;;;;;1.75;0.90;;;6.70;99.90;;;;;;5041975;28;20433;-74
2022/11/07 03:51:08;;;;;;;3.78;1.15;;;6.70;99.90;;;;;;5041119;28;20391;-75
2022/11/07 03:53:35;;;;;;;4.00;1.40;;;6.70;99.90;;;;;;5041502;28;20159;-75
2022/11/07 03:56:07;;;;;;;2.88;1.23;;;6.80;99.90;;;;;;5039861;28;20036;-75
2022/11/07 03:58:33;;;;;;;2.22;1.10;;;6.90;99.90;;;;;;5047562;28;20494;-74
2022/11/07 04:00:58;;;;;;;4.13;1.35;;;6.90;99.90;;;;;;5047124;28;20025;-73
2022/11/07 04:03:24;;;;;;;4.00;1.58;;;6.60;99.90;;;;;;5025029;28;20042;-73
2022/11/07 04:05:50;;;;;;;2.63;1.27;;;6.60;99.90;;;;;;5031837;28;20029;-73
2022/11/07 04:08:15;;;;;;;4.32;1.00;;;6.60;99.90;;;;;;5032261;28;20048;-73
2022/11/07 04:10:41;;;;;;;2.67;1.60;;;6.60;99.90;;;;;;5028832;28;20045;-74
2022/11/07 04:18:34;;;;;;;1.80;1.00;;;6.40;99.90;;;;;;5030488;28;20033;-73
2022/11/07 04:20:59;;;;;;;2.40;0.77;;;6.60;99.90;;;;;;5037385;28;20033;-73
2022/11/07 04:23:25;;;;;;;2.33;1.13;;;6.70;99.90;;;;;;5039197;28;20067;-73
2022/11/07 04:28:35;;;;;;;2.95;1.20;;;6.30;99.90;;;;;;5040946;28;20773;-74
2022/11/07 04:31:00;;;;;;;2.33;1.02;;;6.20;99.90;;;;;;5030704;28;20053;-74
2022/11/07 04:33:26;;;;;;;2.65;1.27;;;6.40;99.90;;;;;;5056001;28;20052;-75
2022/11/07 04:35:52;;;;;;;2.55;1.00;;;6.20;99.90;;;;;;5047956;28;20036;-73
2022/11/07 04:38:17;;;;;;;2.60;1.48;;;6.10;99.90;;;;;;5024689;28;20021;-73
2022/11/07 04:40:43;;;;;;;2.28;1.17;;;6.30;99.90;;;;;;5039497;28;20652;-74
2022/11/07 04:43:09;;;;;;;3.03;0.95;;;6.60;99.90;;;;;;5034055;28;20480;-73
2022/11/07 04:45:38;;;;;;;2.40;0.90;;;6.70;99.90;;;;;;5029548;28;20028;-74
2022/11/07 04:48:05;;;;;;;2.85;1.25;;;6.60;99.90;;;;;;5039488;28;20356;-73
2022/11/07 04:50:30;;;;;;;3.10;1.20;;;6.50;99.90;;;;;;5036900;28;20076;-73
2022/11/07 04:52:56;;;;;;;3.75;1.13;;;6.50;99.90;;;;;;5027874;28;20033;-74
2022/11/07 04:55:25;;;;;;;2.10;1.20;;;6.50;99.90;;;;;;5034108;28;20052;-74
2022/11/07 04:57:51;;;;;;;4.00;1.30;;;6.40;99.90;;;;;;5033547;28;20033;-73
2022/11/07 05:00:18;;;;;;;5.75;2.13;;;6.40;99.90;;;;;;5018140;28;20841;-73
2022/11/07 05:02:44;;;;;;;3.28;1.20;;;6.50;99.90;;;;;;5027003;28;20041;-73
2022/11/07 05:05:11;;;;;;;2.92;1.13;;;6.40;99.90;;;;;;5024411;28;20143;-73
2022/11/07 05:07:37;;;;;;;2.92;1.13;;;6.40;99.90;;;;;;5032927;28;20091;-74
2022/11/07 05:10:05;;;;;;;3.15;1.23;;;6.60;99.90;;;;;;5031468;28;20532;-73
2022/11/07 05:12:31;;;;;;;2.60;1.08;;;6.70;99.90;;;;;;5032212;28;20505;-75
2022/11/07 05:14:57;;;;;;;2.85;1.17;;;6.50;99.90;;;;;;5036111;28;20021;-73
2022/11/07 05:17:23;;;;;;;2.55;1.05;;;6.50;99.90;;;;;;5035328;28;20053;-75
2022/11/07 05:19:48;;;;;;;3.17;1.13;;;6.30;99.90;;;;;;5031635;28;20026;-73
2022/11/07 05:24:59;;;;;;;2.17;1.13;;;6.00;99.90;;;;;;5024785;28;20045;-73
2022/11/07 05:27:24;;;;;;;2.40;1.00;;;6.20;99.90;;;;;;5037147;28;20033;-73
2022/11/07 05:29:50;;;;;;;2.72;1.23;;;6.40;99.90;;;;;;5024497;28;20039;-73
2022/11/07 05:32:16;;;;;;;1.63;0.90;;;6.30;99.90;;;;;;5027019;28;20384;-73
2022/11/07 05:34:42;;;;;;;2.65;1.00;;;6.20;99.90;;;;;;5032462;28;20056;-73
2022/11/07 05:37:10;;;;;;;2.67;1.02;;;6.00;99.90;;;;;;5029437;28;20044;-73
2022/11/07 05:39:36;;;;;;;3.63;1.55;;;6.00;99.90;;;;;;5024095;28;20498;-73
2022/11/07 05:42:03;;;;;;;1.60;0.70;;;6.00;99.90;;;;;;5030447;28;20040;-74
2022/11/07 05:44:29;;;;;;;2.55;1.20;;;5.90;99.90;;;;;;5034952;28;20175;-74
2022/11/07 05:46:56;;;;;;;2.13;0.90;;;6.00;99.90;;;;;;5030824;28;20029;-73
2022/11/07 05:49:22;;;;;;;2.22;1.20;;;6.10;99.90;;;;;;5039622;28;20392;-73
2022/11/07 05:51:47;;;;;;;1.60;0.73;;;6.40;99.90;;;;;;5038658;28;20051;-73
2022/11/07 05:54:13;;;;;;;2.20;1.02;;;6.10;99.90;;;;;;5024582;28;20033;-74
2022/11/07 05:56:39;;;;;;;2.78;1.02;;;6.00;99.90;;;;;;5034979;28;20045;-74
2022/11/07 05:59:05;;;;;;;1.98;0.98;;;6.00;99.90;;;;;;5034174;28;20037;-73
2022/11/07 06:01:31;;;;;;;2.35;0.70;;;6.20;99.90;;;;;;5027627;28;20029;-73
2022/11/07 06:03:57;;;;;;;2.22;1.05;;;5.90;99.90;;;;;;5033919;28;20048;-73
2022/11/07 06:06:22;;;;;;;2.78;1.25;;;5.80;99.90;;;;;;5026684;28;20087;-73
2022/11/07 06:08:48;;;;;;;2.28;1.10;;;5.60;99.90;;;;;;5032504;28;20025;-73
2022/11/07 06:11:14;;;;;;;2.00;1.10;;;5.50;99.90;;;;;;5044777;28;20151;-74
2022/11/07 06:13:39;;;;;;;1.83;0.90;;;5.80;99.90;;;;;;5030872;28;20525;-73
2022/11/07 06:16:05;;;;;;;2.53;0.90;;;6.00;99.90;;;;;;5043045;28;20040;-73
2022/11/07 06:18:31;;;;;;;3.28;1.20;;;6.10;99.90;;;;;;5031614;28;20257;-73
2022/11/07 06:21:00;;;;;;;4.07;1.23;;;6.20;99.90;;;;;;5031770;28;20029;-74
2022/11/07 06:23:26;;;;;;;1.88;0.82;;;6.20;99.90;;;;;;5043623;28;20029;-73
2022/11/07 06:25:51;;;;;;;4.28;1.30;;;6.20;99.90;;;;;;5035199;28;20032;-75
2022/11/07 06:28:17;;;;;;;9.95;1.38;;;6.50;99.90;;;;;;5039175;28;20414;-74
2022/11/07 06:30:43;;;;;;;2.35;1.00;;;7.50;99.90;;;;;;5034408;28;20033;-74
2022/11/07 06:33:14;;;;;;;3.08;1.23;;;6.90;99.90;;;;;;5041224;28;20044;-74
2022/11/07 06:35:40;;;;;;;4.13;1.50;;;6.40;99.90;;;;;;5027338;28;20049;-74
2022/11/07 06:38:11;;;;;;;3.83;1.52;;;6.20;99.90;;;;;;5032434;28;20029;-74
2022/11/07 06:40:37;;;;;;;3.08;1.15;;;6.00;99.90;;;;;;5035344;28;20036;-74
2022/11/07 06:43:07;;;;;;;1.98;0.70;;;5.90;99.90;;;;;;5039950;28;20131;-74
2022/11/07 06:45:33;;;;;;;1.67;0.88;;;5.80;99.90;;;;;;5039471;28;20517;-75
2022/11/07 06:47:59;;;;;;;10.80;1.52;;;5.70;99.90;;;;;;5030982;28;20186;-74
2022/11/07 06:50:25;;;;;;;2.30;1.05;;;5.80;99.90;;;;;;5030834;28;20037;-74
2022/11/07 06:52:50;;;;;;;3.15;1.40;;;6.00;99.90;;;;;;5041709;28;20471;-75
2022/11/07 06:55:16;;;;;;;3.58;1.42;;;6.50;99.90;;;;;;5032895;28;20179;-74
2022/11/07 06:57:42;;;;;;;3.13;1.10;;;6.30;99.90;;;;;;5030549;28;20082;-74
2022/11/07 07:00:08;;;;;;;3.03;1.25;;;6.10;99.90;;;;;;5036040;28;20037;-74
2022/11/07 07:02:34;;;;;;;3.03;1.20;;;6.10;99.90;;;;;;5032016;28;20040;-74
2022/11/07 07:04:59;;;;;;;2.53;1.13;;;6.20;99.90;;;;;;5035790;28;20029;-74
2022/11/07 07:07:25;;;;;;;4.85;1.40;;;6.20;99.90;;;;;;5030786;28;20128;-75
2022/11/07 07:09:50;;;;;;;3.67;1.55;;;6.10;99.90;;;;;;5027676;28;20095;-74
2022/11/07 07:12:16;;;;;;;1.75;0.95;;;6.10;99.90;;;;;;5033006;28;20506;-74
2022/11/07 07:14:42;;;;;;;2.67;1.02;;;6.10;99.90;;;;;;5035125;28;20510;-75
2022/11/07 07:17:09;;;;;;;4.88;1.40;;;6.10;99.90;;;;;;5030583;28;20124;-75
2022/11/07 07:19:35;;;;;;;1.48;1.02;;;6.20;99.90;;;;;;5036313;28;20029;-76
2022/11/07 07:22:02;;;;;;;2.38;1.10;;;6.20;99.90;;;;;;5032319;28;20032;-75
2022/11/07 07:24:27;;;;;;;5.40;1.15;;;6.10;99.90;;;;;;5023500;28;20033;-75
2022/11/07 07:26:53;;;;;;;1.98;0.93;;;6.20;99.90;;;;;;5031488;28;20082;-75
2022/11/07 07:29:18;;;;;;;3.35;1.55;;;6.30;99.90;;;;;;5024504;28;20053;-75
2022/11/07 07:31:45;;;;;;;2.25;0.90;;;6.30;99.90;;;;;;5039231;28;20143;-75
2022/11/07 07:34:11;;;;;;;4.38;1.70;;;6.30;99.90;;;;;;5009104;28;20471;-75
2022/11/07 07:36:36;;;;;;;5.43;2.55;;;6.30;99.90;;;;;;5032599;28;20032;-75
2022/11/07 07:39:02;;;;;;;6.25;2.30;;;6.10;99.90;;;;;;5028841;28;20116;-75
2022/11/07 07:41:28;;;;;;;6.68;1.88;;;5.90;99.90;;;;;;5032381;28;20144;-75
2022/11/07 07:43:54;;;;;;;5.60;1.85;;;5.80;99.90;;;;;;5043097;28;20132;-75
2022/11/07 07:46:22;;;;;;;4.88;1.63;;;5.60;99.90;;;;;;5029487;28;20193;-75
2022/11/07 07:48:48;;;;;;;3.28;1.75;;;5.70;99.90;;;;;;5030027;28;20037;-74
2022/11/07 07:51:13;;;;;;;2.47;1.20;;;5.60;99.90;;;;;;5031007;28;20573;-74
2022/11/07 07:53:39;;;;;;;4.65;1.10;;;5.80;99.90;;;;;;5037945;28;20127;-74
2022/11/07 07:56:06;;;;;;;2.08;0.95;;;6.10;99.90;;;;;;5026858;28;20180;-74
2022/11/07 07:58:32;;;;;;;4.30;1.50;;;6.40;99.90;;;;;;5036969;28;20112;-74
2022/11/07 08:00:57;;;;;;;4.93;2.30;;;6.40;99.90;;;;;;5036345;28;20085;-74
2022/11/07 08:03:24;;;;;;;6.18;2.05;;;6.20;99.90;;;;;;5033501;28;20521;-75
2022/11/07 08:05:57;;;;;;;4.05;2.03;;;6.00;99.90;;;;;;5030075;28;20057;-74
2022/11/07 08:08:24;;;;;;;5.10;2.20;;;6.00;99.90;;;;;;5034158;28;20033;-74
2022/11/07 08:10:55;;;;;;;7.15;2.03;;;6.10;99.90;;;;;;5034064;28;20091;-75
2022/11/07 08:13:23;;;;;;;5.53;2.10;;;6.00;99.90;;;;;;5036742;28;20028;-75
2022/11/07 08:15:50;;;;;;;3.53;1.70;;;6.00;99.90;;;;;;5027114;28;20030;-74
2022/11/07 08:18:18;;;;;;;6.70;1.55;;;5.90;99.90;;;;;;5029838;28;20043;-75
2022/11/07 08:20:44;;;;;;;3.33;1.63;;;6.00;99.90;;;;;;5042688;28;20025;-75
2022/11/07 08:23:10;;;;;;;4.72;1.38;;;6.20;99.90;;;;;;5044983;28;20101;-74
2022/11/07 08:25:37;;;;;;;1.92;1.00;;;6.20;99.90;;;;;;5041461;28;20035;-74
2022/11/07 08:28:04;;;;;;;2.75;1.02;;;6.30;99.90;;;;;;5028708;28;20148;-74
2022/11/07 08:30:30;;;;;;;3.08;1.40;;;6.50;99.90;;;;;;5032103;28;20035;-74
2022/11/07 08:33:00;;;;;;;4.55;1.67;;;6.60;99.90;;;;;;5023928;28;20360;-75
2022/11/07 08:35:26;;;;;;;4.10;0.98;;;6.50;99.90;;;;;;5035299;28;20079;-75
2022/11/07 08:37:55;;;;;;;4.93;1.30;;;6.40;99.90;;;;;;5033476;28;20185;-74
2022/11/07 08:40:21;;;;;;;1.98;1.10;;;6.40;99.90;;;;;;5025452;28;20037;-75
2022/11/07 08:42:46;;;;;;;3.28;1.48;;;6.30;99.90;;;;;;5028315;28;20025;-74
2022/11/07 08:45:12;;;;;;;3.20;1.02;;;6.30;99.90;;;;;;5030534;28;20026;-74
2022/11/07 08:47:38;;;;;;;3.70;1.10;;;6.30;99.90;;;;;;5032033;28;20031;-75
2022/11/07 08:50:04;;;;;;;2.97;1.33;;;6.40;99.90;;;;;;5030550;28;20494;-75
2022/11/07 08:52:30;;;;;;;3.15;0.98;;;6.40;99.90;;;;;;5035129;28;20060;-74
2022/11/07 08:54:56;;;;;;;4.22;1.30;;;6.50;99.90;;;;;;5033018;28;20052;-75
2022/11/07 08:57:21;;;;;;;2.85;1.02;;;6.50;99.90;;;;;;5031597;28;20055;-74
2022/11/07 08:59:47;;;;;;;2.28;1.02;;;6.50;99.90;;;;;;5027716;28;20025;-75
2022/11/07 09:02:13;;;;;;;3.45;1.50;;;6.60;99.90;;;;;;5032721;28;20053;-75
2022/11/07 09:04:38;;;;;;;2.05;0.80;;;6.70;99.90;;;;;;5033202;28;20037;-74
2022/11/07 09:07:04;;;;;;;4.15;0.98;;;6.70;99.90;;;;;;5037908;28;20041;-75
2022/11/07 09:09:30;;;;;;;2.22;1.00;;;6.80;99.90;;;;;;5031787;28;20025;-75
2022/11/07 09:11:56;;;;;;;2.75;1.55;;;6.80;99.90;;;;;;5034130;28;20447;-74
2022/11/07 09:14:22;;;;;;;2.47;1.33;;;6.90;99.90;;;;;;5030890;28;20107;-74
2022/11/07 09:16:47;;;;;;;3.67;1.25;;;6.90;99.90;;;;;;5034360;28;20047;-74
2022/11/07 09:19:13;;;;;;;3.65;1.23;;;7.10;99.90;;;;;;5030295;28;20561;-73
2022/11/07 09:21:39;;;;;;;2.80;1.58;;;7.10;99.90;;;;;;5032713;28;20423;-73
2022/11/07 09:24:05;;;;;;;4.68;1.58;;;7.20;99.90;;;;;;5029971;28;20038;-73
2022/11/07 09:26:30;;;;;;;6.85;1.70;;;7.30;99.90;;;;;;5030945;28;20120;-73
2022/11/07 09:28:56;;;;;;;2.35;1.20;;;7.40;99.90;;;;;;5026758;28;20375;-73
2022/11/07 09:31:22;;;;;;;3.10;1.70;;;7.50;99.90;;;;;;5039306;28;20515;-73
2022/11/07 09:33:48;;;;;;;4.75;1.73;;;7.60;99.90;;;;;;5030534;28;20029;-73
2022/11/07 09:36:13;;;;;;;4.00;1.30;;;7.60;99.90;;;;;;5025073;28;20910;-73
2022/11/07 09:38:39;;;;;;;6.00;1.40;;;7.80;99.90;;;;;;5032562;28;20151;-73
2022/11/07 09:41:23;;;;;;;4.00;1.77;;;7.80;99.90;;;;;;5032736;28;20037;-73
2022/11/07 09:44:30;;;;;;;3.17;1.45;;;7.90;99.90;;;;;;5024577;28;20053;-73
2022/11/07 09:47:02;;;;;;;4.10;2.15;;;8.00;99.90;;;;;;5006222;28;20049;-73
2022/11/07 09:49:35;;;;;;;2.72;1.45;;;8.20;99.90;;;;;;5036047;28;20045;-73
2022/11/07 09:52:22;;;;;;;3.88;1.65;;;8.20;99.90;;;;;;5031352;28;20064;-73
2022/11/07 09:55:06;;;;;;;3.15;1.33;;;8.20;99.90;;;;;;5025649;28;20040;-74
2022/11/07 09:57:34;;;;;;;3.38;1.70;;;8.30;99.90;;;;;;5024433;28;20119;-73
2022/11/07 10:00:04;;;;;;;4.78;1.80;;;8.40;99.90;;;;;;5035161;28;20082;-74
2022/11/07 10:02:33;;;;;;;2.67;1.48;;;8.50;99.90;;;;;;5041500;28;20033;-74
2022/11/07 10:05:02;;;;;;;3.65;1.48;;;8.50;99.90;;;;;;5030064;28;20036;-74
2022/11/07 10:07:34;;;;;;;5.22;1.42;;;8.60;99.90;;;;;;5036666;28;20414;-74
2022/11/07 10:10:03;;;;;;;4.13;1.30;;;8.70;99.90;;;;;;5031047;28;20124;-73
2022/11/07 10:13:00;;;;;;;6.28;1.90;;;8.70;99.90;;;;;;5046025;28;20078;-74
2022/11/07 10:15:43;;;;;;;3.28;1.48;;;9.00;99.90;;;;;;5036912;28;20111;-75
2022/11/07 10:18:15;;;;;;;3.55;1.65;;;8.90;99.90;;;;;;5034612;28;20052;-75
2022/11/07 10:21:01;;;;;;;3.17;1.20;;;8.90;99.90;;;;;;5033747;28;20029;-73
2022/11/07 10:23:51;;;;;;;4.15;1.58;;;9.00;99.90;;;;;;5046618;28;20037;-75
2022/11/07 10:26:21;;;;;;;2.42;1.17;;;9.10;99.90;;;;;;5041386;28;20360;-75
2022/11/07 10:29:00;;;;;;;3.55;0.93;;;9.10;99.50;;;;;;5034746;28;20033;-73
2022/11/07 10:31:35;;;;;;;1.88;0.93;;;9.10;99.30;;;;;;5040330;28;20045;-73
2022/11/07 10:34:03;;;;;;;;;;;9.20;99.40;;;;;;5035580;28;20036;-73
2022/11/07 10:36:31;;;;;;;2.35;1.17;;;9.30;99.60;;;;;;5032976;28;19959;-74
2022/11/07 10:38:57;;;;;;;2.85;1.00;;;9.50;99.70;;;;;;5047928;28;20029;-74
2022/11/07 10:41:28;;;;;;;2.45;1.17;;;9.60;99.40;;;;;;5040345;28;20025;-74
2022/11/07 10:44:01;;;;;;;2.10;1.00;;;9.50;99.30;;;;;;5042441;28;20090;-74
2022/11/07 10:46:43;;;;;;;3.17;1.20;;;9.70;99.40;;;;;;5048811;28;20107;-74
2022/11/07 10:49:21;;;;;;;3.83;1.23;;;9.80;99.40;;;;;;5033484;28;20040;-74
2022/11/07 10:51:49;;;;;;;4.28;1.40;;;10.00;99.20;;;;;;5040051;28;20491;-74
2022/11/07 10:54:24;;;;;;;3.22;1.20;;;10.00;99.20;;;;;;5037367;28;20029;-74
2022/11/07 10:57:05;;;;;;;5.65;1.40;;;10.00;99.00;;;;;;5032465;28;20104;-74
2022/11/07 10:59:33;;;;;;;5.68;1.63;;;10.10;99.00;;;;;;5033712;28;20083;-74
2022/11/07 11:02:00;;;;;;;2.05;1.08;;;10.30;99.00;;;;;;5045668;28;20036;-74
2022/11/07 11:04:27;;;;;;;2.72;1.00;;;10.40;98.90;;;;;;5046001;28;20041;-74
2022/11/07 11:07:05;;;;;;;2.70;1.40;;;10.40;98.40;;;;;;5046654;28;20025;-74
2022/11/07 11:09:35;;;;;;;3.85;1.42;;;10.50;97.90;;;;;;5047088;28;20025;-74
2022/11/07 11:12:12;;;;;;;2.70;1.30;;;10.50;98.00;;;;;;5046876;28;20032;-74
2022/11/07 11:14:38;;;;;;;3.30;1.20;;;11.00;98.40;;;;;;5046801;28;20027;-73
2022/11/07 11:17:05;;;;;;;2.90;1.30;;;11.20;98.00;;;;;;5034025;28;20037;-74
2022/11/07 11:19:40;;;;;;;4.18;1.42;;;11.20;98.20;;;;;;5045497;28;20154;-74
2022/11/07 11:22:15;;;;;;;2.95;1.40;;;11.30;97.90;;;;;;5043758;28;20084;-74
2022/11/07 11:24:41;;;;;;;4.53;1.40;;;11.40;97.80;;;;;;5032391;28;20045;-74
2022/11/07 11:27:18;;;;;;;2.47;1.00;;;11.40;97.30;;;;;;5030092;28;20030;-74
2022/11/07 11:30:04;;;;;;;5.30;1.30;;;11.30;97.10;;;;;;5029566;28;20033;-74
2022/11/07 11:32:40;;;;;;;4.22;1.50;;;11.10;96.70;;;;;;5022667;28;20052;-74
2022/11/07 11:35:16;;;;;;;2.95;1.40;;;11.10;97.50;;;;;;5028608;28;20041;-74
2022/11/07 11:37:49;;;;;;;4.43;1.67;;;11.30;97.10;;;;;;5026384;28;20499;-74
2022/11/07 11:40:21;;;;;;;2.97;1.40;;;11.50;97.00;;;;;;5037714;28;20120;-74
2022/11/07 11:43:18;;;;;;;8.77;1.50;;;11.70;97.10;;;;;;5041133;28;20048;-74
2022/11/07 11:45:49;;;;;;;2.80;1.38;;;11.50;96.70;;;;;;5023934;28;20045;-74
2022/11/07 11:48:38;;;;;;;5.00;1.30;;;11.60;97.20;;;;;;5032921;28;20041;-74
2022/11/07 11:51:25;;;;;;;2.30;1.15;;;11.70;97.30;;;;;;5022141;28;20056;-74
2022/11/07 11:53:51;;;;;;;2.70;1.40;;;11.90;97.10;;;;;;5026943;28;20029;-74
2022/11/07 11:56:25;;;;;;;2.83;1.20;;;12.10;97.00;;;;;;5033157;28;20060;-74
2022/11/07 11:59:09;;;;;;;;;;;12.10;97.30;;;;;;5033458;28;20113;-73
2022/11/07 12:02:01;;;;;;;;;;;12.00;96.80;;;;;;5026126;28;20003;-74
2022/11/07 12:04:29;;;;;;;;;;;12.30;96.30;;;;;;5039783;28;19916;-74
2022/11/07 12:06:59;;;;;;;;;;;12.20;96.10;;;;;;5051199;28;19935;-74
2022/11/07 12:09:35;;;;;;;;;;;12.10;96.10;;;;;;5051944;28;19916;-74
2022/11/07 12:12:06;;;;;;;;;;;12.20;96.60;;;;;;5036228;28;19932;-74
2022/11/07 12:14:32;;;;;;;;;;;12.30;96.80;;;;;;5029022;28;19948;-74
2022/11/07 12:16:57;;;;;;;;;;;12.30;96.50;;;;;;5038115;28;19955;-74
2022/11/07 12:19:28;;;;;;;;;;;12.30;96.50;;;;;;5038878;28;20397;-74
2022/11/07 12:21:53;;;;;;;;;;;12.40;96.00;;;;;;5029762;28;19913;-74
2022/11/07 12:24:19;;;;;;;;;;;12.40;96.20;;;;;;5039733;28;19923;-74
2022/11/07 12:26:44;;;;;;;;;;;12.40;96.30;;;;;;5035616;28;20318;-74
2022/11/07 12:29:36;;;;;;;;;;;12.50;96.50;;;;;;5032734;28;20003;-73
2022/11/07 12:32:08;;;;;;;;;;;12.60;96.50;;;;;;5013371;28;19913;-74
2022/11/07 12:34:54;;;;;;;;;;;12.60;96.40;;;;;;5043060;28;20370;-73
2022/11/07 12:37:35;;;;;;;;;;;12.60;96.10;;;;;;5031516;28;20355;-74
2022/11/07 12:40:22;;;;;;;;;;;12.70;96.30;;;;;;5041395;28;19919;-73
2022/11/07 12:42:50;;;;;;;;;;;12.80;96.10;;;;;;5031638;28;20016;-72
2022/11/07 12:45:19;;;;;;;;;;;12.90;96.30;;;;;;5025112;28;19952;-72
2022/11/07 12:48:01;;;;;;;;;;;12.90;95.90;;;;;;5033051;28;20487;-72
2022/11/07 12:50:46;;;;;;;;;;;12.90;95.60;;;;;;5028473;28;19956;-72
2022/11/07 12:53:30;;;;;;;;;;;12.90;96.10;;;;;;5031242;28;19967;-72
2022/11/07 12:55:59;;;;;;;;;;;13.00;96.00;;;;;;5041675;28;19917;-72
2022/11/07 12:58:29;;;;;;;;;;;13.00;96.00;;;;;;5034099;28;19909;-72
2022/11/07 13:00:55;;;;;;;;;;;13.00;96.00;;;;;;5030752;28;19912;-72
2022/11/07 13:03:21;;;;;;;;;;;13.10;95.70;;;;;;5024022;28;19924;-72
2022/11/07 13:05:53;;;;;;;;;;;13.10;95.90;;;;;;5032817;28;19909;-73
2022/11/07 13:08:22;;;;;;;;;;;13.10;95.80;;;;;;5030537;28;19909;-73
2022/11/07 13:10:56;;;;;;;;;;;12.90;95.60;;;;;;5035701;28;19996;-73
2022/11/07 13:13:40;;;;;;;;;;;12.80;95.70;;;;;;5038254;28;19916;-73
2022/11/07 13:16:26;;;;;;;;;;;12.80;95.90;;;;;;5035101;28;20607;-73
2022/11/07 13:18:51;;;;;;;;;;;12.90;95.90;;;;;;5029962;28;19916;-73
2022/11/07 13:21:17;;;;;;;;;;;13.00;95.60;;;;;;5027729;28;19913;-74
2022/11/07 13:23:42;;;;;;;;;;;13.00;95.90;;;;;;5034318;28;19924;-74
2022/11/07 13:26:08;;;;;;;;;;;13.00;95.50;;;;;;5035434;28;19971;-74
2022/11/07 13:28:38;;;;;;;;;;;13.00;95.60;;;;;;5018363;28;19909;-75